Terminal Aerodrome Forecast
Issued by NWS Wichita, KS

Home | Current Version | Previous Version | Text Only | Print | Product List | Glossary Off
Versions: 1 2 3 4 5 6 7 8 9 10 11 12 13 14 15 16 17

000
FTUS43 KICT 221100
TAFICT
TAF
KICT 221131Z 2212/2312 16009KT P6SM SKC
      TEMPO 2212/2214 5SM BR
     FM221700 18017G24KT P6SM SCT045 SCT150
     FM222300 18009KT P6SM VCSH SCT025 OVC050
     FM230800 18006KT 5SM BR SCT015=

USA.gov is the U.S. government's official web portal to all federal, state and local government web resources and services.